sensor_id;sensor_type;location;lat;lon;timestamp;temperature;humidity
19000;DHT22;9633;50.980;13.850;2023-02-13T06:22:42;5.20;99.90
19000;DHT22;9633;50.980;13.850;2023-02-13T06:24:15;5.40;99.90
19000;DHT22;9633;50.980;13.850;2023-02-13T06:25:48;5.30;99.90
19000;DHT22;9633;50.980;13.850;2023-02-13T06:27:21;5.10;99.90
19000;DHT22;9633;50.980;13.850;2023-02-13T06:28:55;5.10;99.90
19000;DHT22;9633;50.980;13.850;2023-02-13T06:30:30;5.10;99.90
19000;DHT22;9633;50.980;13.850;2023-02-13T06:39:52;5.10;99.90
19000;DHT22;9633;50.980;13.850;2023-02-13T06:42:58;5.20;99.90
19000;DHT22;9633;50.980;13.850;2023-02-13T06:53:56;5.30;99.90
19000;DHT22;9633;50.980;13.850;2023-02-13T06:55:29;5.40;99.90
19000;DHT22;9633;50.980;13.850;2023-02-13T06:57:02;5.40;99.90
19000;DHT22;9633;50.980;13.850;2023-02-13T06:58:35;5.30;99.90
19000;DHT22;9633;50.980;13.850;2023-02-13T07:00:10;5.30;99.90
19000;DHT22;9633;50.980;13.850;2023-02-13T07:01:45;5.20;99.90
19000;DHT22;9633;50.980;13.850;2023-02-13T07:03:19;5.20;99.90
19000;DHT22;9633;50.980;13.850;2023-02-13T07:04:52;5.20;99.90
19000;DHT22;9633;50.980;13.850;2023-02-13T07:06:25;5.30;99.90
19000;DHT22;9633;50.980;13.850;2023-02-13T07:07:58;5.50;99.90
19000;DHT22;9633;50.980;13.850;2023-02-13T07:09:32;5.30;99.90
19000;DHT22;9633;50.980;13.850;2023-02-13T07:11:05;5.30;99.90
19000;DHT22;9633;50.980;13.850;2023-02-13T07:12:38;5.30;99.90
19000;DHT22;9633;50.980;13.850;2023-02-13T07:14:11;5.30;99.90
19000;DHT22;9633;50.980;13.850;2023-02-13T07:15:44;5.30;99.90
19000;DHT22;9633;50.980;13.850;2023-02-13T07:17:19;5.30;99.90
19000;DHT22;9633;50.980;13.850;2023-02-13T07:18:52;5.40;99.90
19000;DHT22;9633;50.980;13.850;2023-02-13T07:20:26;5.40;99.90
19000;DHT22;9633;50.980;13.850;2023-02-13T07:21:59;5.40;99.90
19000;DHT22;9633;50.980;13.850;2023-02-13T07:23:32;5.40;99.90
19000;DHT22;9633;50.980;13.850;2023-02-13T07:25:06;5.40;99.90
19000;DHT22;9633;50.980;13.850;2023-02-13T07:26:39;5.40;99.90
19000;DHT22;9633;50.980;13.850;2023-02-13T07:28:12;5.50;99.90
19000;DHT22;9633;50.980;13.850;2023-02-13T07:29:45;5.50;99.90
19000;DHT22;9633;50.980;13.850;2023-02-13T07:31:18;5.50;99.90
19000;DHT22;9633;50.980;13.850;2023-02-13T07:32:54;5.50;99.90
19000;DHT22;9633;50.980;13.850;2023-02-13T07:34:29;5.50;99.90
19000;DHT22;9633;50.980;13.850;2023-02-13T07:36:04;5.60;99.90
19000;DHT22;9633;50.980;13.850;2023-02-13T07:37:37;5.60;99.90
19000;DHT22;9633;50.980;13.850;2023-02-13T07:39:10;5.60;99.90
19000;DHT22;9633;50.980;13.850;2023-02-13T07:40:43;5.60;99.90
19000;DHT22;9633;50.980;13.850;2023-02-13T07:42:16;5.70;99.90
19000;DHT22;9633;50.980;13.850;2023-02-13T07:43:49;5.70;99.90
19000;DHT22;9633;50.980;13.850;2023-02-13T07:45:22;5.70;99.90
19000;DHT22;9633;50.980;13.850;2023-02-13T07:46:56;5.80;99.90
19000;DHT22;9633;50.980;13.850;2023-02-13T07:48:31;5.80;99.90
19000;DHT22;9633;50.980;13.850;2023-02-13T07:50:05;5.90;99.90
19000;DHT22;9633;50.980;13.850;2023-02-13T07:51:38;5.90;99.90
19000;DHT22;9633;50.980;13.850;2023-02-13T07:53:11;5.90;99.90
19000;DHT22;9633;50.980;13.850;2023-02-13T07:54:44;6.00;99.90
19000;DHT22;9633;50.980;13.850;2023-02-13T07:56:19;6.00;99.90
19000;DHT22;9633;50.980;13.850;2023-02-13T07:57:52;6.00;99.90
19000;DHT22;9633;50.980;13.850;2023-02-13T07:59:25;6.00;99.90
19000;DHT22;9633;50.980;13.850;2023-02-13T08:01:04;6.00;99.90
19000;DHT22;9633;50.980;13.850;2023-02-13T08:02:37;6.00;99.90
19000;DHT22;9633;50.980;13.850;2023-02-13T08:04:11;6.10;99.90
19000;DHT22;9633;50.980;13.850;2023-02-13T08:05:46;6.10;99.90
19000;DHT22;9633;50.980;13.850;2023-02-13T08:07:20;6.10;99.90
19000;DHT22;9633;50.980;13.850;2023-02-13T08:08:53;6.10;99.90
19000;DHT22;9633;50.980;13.850;2023-02-13T08:10:40;6.10;99.90
19000;DHT22;9633;50.980;13.850;2023-02-13T08:12:31;6.20;99.90
19000;DHT22;9633;50.980;13.850;2023-02-13T08:14:06;6.20;99.90
19000;DHT22;9633;50.980;13.850;2023-02-13T08:15:39;6.10;99.90
19000;DHT22;9633;50.980;13.850;2023-02-13T08:17:15;6.10;99.90
19000;DHT22;9633;50.980;13.850;2023-02-13T08:18:48;6.20;99.90
19000;DHT22;9633;50.980;13.850;2023-02-13T08:20:22;6.10;99.90
19000;DHT22;9633;50.980;13.850;2023-02-13T08:21:56;6.10;99.90
19000;DHT22;9633;50.980;13.850;2023-02-13T08:23:29;6.20;99.90
19000;DHT22;9633;50.980;13.850;2023-02-13T08:25:02;6.20;99.90
19000;DHT22;9633;50.980;13.850;2023-02-13T09:21:23;7.50;99.90
19000;DHT22;9633;50.980;13.850;2023-02-13T09:22:57;7.20;99.90
19000;DHT22;9633;50.980;13.850;2023-02-13T09:24:31;6.90;99.90
19000;DHT22;9633;50.980;13.850;2023-02-13T09:26:06;6.90;99.90
19000;DHT22;9633;50.980;13.850;2023-02-13T09:27:39;6.90;99.90
19000;DHT22;9633;50.980;13.850;2023-02-13T09:29:12;6.90;99.90
19000;DHT22;9633;50.980;13.850;2023-02-13T09:30:46;6.90;99.90
19000;DHT22;9633;50.980;13.850;2023-02-13T09:32:20;6.90;99.90
19000;DHT22;9633;50.980;13.850;2023-02-13T09:33:53;6.80;99.90
19000;DHT22;9633;50.980;13.850;2023-02-13T09:35:26;6.70;99.90
19000;DHT22;9633;50.980;13.850;2023-02-13T09:37:00;6.80;99.90
19000;DHT22;9633;50.980;13.850;2023-02-13T09:38:35;6.80;99.90
19000;DHT22;9633;50.980;13.850;2023-02-13T09:40:15;6.80;99.90
19000;DHT22;9633;50.980;13.850;2023-02-13T09:41:50;6.80;99.90
19000;DHT22;9633;50.980;13.850;2023-02-13T09:43:27;6.90;99.90
19000;DHT22;9633;50.980;13.850;2023-02-13T09:45:03;7.00;99.90
19000;DHT22;9633;50.980;13.850;2023-02-13T09:46:39;7.10;99.90
19000;DHT22;9633;50.980;13.850;2023-02-13T09:48:18;7.10;99.90
19000;DHT22;9633;50.980;13.850;2023-02-13T09:49:57;7.20;99.90
19000;DHT22;9633;50.980;13.850;2023-02-13T09:51:32;7.20;99.90
19000;DHT22;9633;50.980;13.850;2023-02-13T09:53:05;7.20;99.90
19000;DHT22;9633;50.980;13.850;2023-02-13T09:54:39;7.10;99.90
19000;DHT22;9633;50.980;13.850;2023-02-13T09:56:15;7.10;99.90
19000;DHT22;9633;50.980;13.850;2023-02-13T09:57:55;7.10;99.90
19000;DHT22;9633;50.980;13.850;2023-02-13T09:59:41;7.10;99.90
19000;DHT22;9633;50.980;13.850;2023-02-13T10:01:23;7.10;99.90
19000;DHT22;9633;50.980;13.850;2023-02-13T10:03:20;7.10;99.90
19000;DHT22;9633;50.980;13.850;2023-02-13T10:04:59;7.20;99.90
19000;DHT22;9633;50.980;13.850;2023-02-13T10:06:38;7.40;99.90
19000;DHT22;9633;50.980;13.850;2023-02-13T10:08:30;7.40;99.90
19000;DHT22;9633;50.980;13.850;2023-02-13T10:10:16;7.40;99.90
19000;DHT22;9633;50.980;13.850;2023-02-13T10:12:11;7.60;99.90
19000;DHT22;9633;50.980;13.850;2023-02-13T10:13:58;7.70;99.90
19000;DHT22;9633;50.980;13.850;2023-02-13T10:15:39;7.80;99.90
19000;DHT22;9633;50.980;13.850;2023-02-13T10:17:18;7.80;99.90
19000;DHT22;9633;50.980;13.850;2023-02-13T10:18:58;7.80;99.90
19000;DHT22;9633;50.980;13.850;2023-02-13T10:20:36;7.80;99.90
19000;DHT22;9633;50.980;13.850;2023-02-13T10:22:14;7.70;99.90
19000;DHT22;9633;50.980;13.850;2023-02-13T10:23:50;7.80;99.90
19000;DHT22;9633;50.980;13.850;2023-02-13T10:25:41;7.60;99.90
19000;DHT22;9633;50.980;13.850;2023-02-13T10:27:20;7.40;99.90
19000;DHT22;9633;50.980;13.850;2023-02-13T10:28:56;7.50;99.90
19000;DHT22;9633;50.980;13.850;2023-02-13T10:30:53;7.60;99.90
19000;DHT22;9633;50.980;13.850;2023-02-13T10:32:31;7.60;99.90
19000;DHT22;9633;50.980;13.850;2023-02-13T10:34:11;7.70;99.90
19000;DHT22;9633;50.980;13.850;2023-02-13T10:35:51;7.70;99.90
19000;DHT22;9633;50.980;13.850;2023-02-13T10:37:27;7.70;99.90
19000;DHT22;9633;50.980;13.850;2023-02-13T10:39:12;7.70;99.90
19000;DHT22;9633;50.980;13.850;2023-02-13T10:41:24;7.70;99.90
19000;DHT22;9633;50.980;13.850;2023-02-13T10:43:07;7.70;99.90
19000;DHT22;9633;50.980;13.850;2023-02-13T10:44:50;7.70;99.90
19000;DHT22;9633;50.980;13.850;2023-02-13T10:46:30;7.70;99.90
19000;DHT22;9633;50.980;13.850;2023-02-13T10:48:16;7.90;99.90
19000;DHT22;9633;50.980;13.850;2023-02-13T10:50:02;8.00;99.90
19000;DHT22;9633;50.980;13.850;2023-02-13T10:51:41;8.10;99.90
19000;DHT22;9633;50.980;13.850;2023-02-13T10:53:20;8.10;99.90
19000;DHT22;9633;50.980;13.850;2023-02-13T10:55:08;8.20;99.90
19000;DHT22;9633;50.980;13.850;2023-02-13T10:56:52;8.20;99.90
19000;DHT22;9633;50.980;13.850;2023-02-13T10:58:42;8.30;99.90
19000;DHT22;9633;50.980;13.850;2023-02-13T11:00:25;8.10;99.90
19000;DHT22;9633;50.980;13.850;2023-02-13T11:02:11;8.20;99.90
19000;DHT22;9633;50.980;13.850;2023-02-13T11:03:45;8.30;99.90
19000;DHT22;9633;50.980;13.850;2023-02-13T11:05:24;8.50;99.90
19000;DHT22;9633;50.980;13.850;2023-02-13T11:06:59;8.60;99.90
19000;DHT22;9633;50.980;13.850;2023-02-13T11:08:35;8.60;99.90
19000;DHT22;9633;50.980;13.850;2023-02-13T11:10:14;8.70;99.90
19000;DHT22;9633;50.980;13.850;2023-02-13T11:11:49;8.70;99.90
19000;DHT22;9633;50.980;13.850;2023-02-13T11:13:25;8.60;99.90
19000;DHT22;9633;50.980;13.850;2023-02-13T11:15:00;8.60;99.90
19000;DHT22;9633;50.980;13.850;2023-02-13T11:16:38;8.60;99.90
19000;DHT22;9633;50.980;13.850;2023-02-13T11:18:16;8.60;99.90
19000;DHT22;9633;50.980;13.850;2023-02-13T11:19:53;8.50;99.90
19000;DHT22;9633;50.980;13.850;2023-02-13T11:21:33;8.40;99.90
19000;DHT22;9633;50.980;13.850;2023-02-13T11:23:17;8.20;99.90
19000;DHT22;9633;50.980;13.850;2023-02-13T11:24:59;8.20;99.90
19000;DHT22;9633;50.980;13.850;2023-02-13T11:26:35;8.10;99.90
19000;DHT22;9633;50.980;13.850;2023-02-13T11:28:16;8.10;99.90
19000;DHT22;9633;50.980;13.850;2023-02-13T11:29:56;8.20;99.90
19000;DHT22;9633;50.980;13.850;2023-02-13T11:31:31;8.00;99.90
19000;DHT22;9633;50.980;13.850;2023-02-13T11:33:17;7.90;99.90
19000;DHT22;9633;50.980;13.850;2023-02-13T11:34:52;7.90;99.90
19000;DHT22;9633;50.980;13.850;2023-02-13T11:36:28;7.90;99.90
19000;DHT22;9633;50.980;13.850;2023-02-13T11:38:11;8.00;99.90
19000;DHT22;9633;50.980;13.850;2023-02-13T11:39:47;8.00;99.90
19000;DHT22;9633;50.980;13.850;2023-02-13T11:41:23;8.10;99.90
19000;DHT22;9633;50.980;13.850;2023-02-13T11:42:57;8.00;99.90
19000;DHT22;9633;50.980;13.850;2023-02-13T11:44:32;7.90;99.90
19000;DHT22;9633;50.980;13.850;2023-02-13T11:46:17;7.90;99.90
19000;DHT22;9633;50.980;13.850;2023-02-13T11:47:53;8.00;99.90
19000;DHT22;9633;50.980;13.850;2023-02-13T11:49:28;8.10;99.90
19000;DHT22;9633;50.980;13.850;2023-02-13T11:51:03;8.20;99.90
19000;DHT22;9633;50.980;13.850;2023-02-13T11:52:37;8.30;99.90
19000;DHT22;9633;50.980;13.850;2023-02-13T11:54:31;8.30;99.90
19000;DHT22;9633;50.980;13.850;2023-02-13T11:56:09;8.20;99.90
19000;DHT22;9633;50.980;13.850;2023-02-13T11:57:55;8.20;99.90
19000;DHT22;9633;50.980;13.850;2023-02-13T11:59:33;8.20;99.90
19000;DHT22;9633;50.980;13.850;2023-02-13T12:01:23;8.20;99.90
19000;DHT22;9633;50.980;13.850;2023-02-13T12:02:57;8.20;99.90
19000;DHT22;9633;50.980;13.850;2023-02-13T12:04:30;8.40;99.90
19000;DHT22;9633;50.980;13.850;2023-02-13T12:46:29;8.10;99.90
19000;DHT22;9633;50.980;13.850;2023-02-13T12:48:20;8.30;99.90
19000;DHT22;9633;50.980;13.850;2023-02-13T12:50:11;8.30;99.90
19000;DHT22;9633;50.980;13.850;2023-02-13T12:52:05;8.40;99.90
19000;DHT22;9633;50.980;13.850;2023-02-13T12:53:54;8.60;99.90
19000;DHT22;9633;50.980;13.850;2023-02-13T12:55:49;8.60;99.90
19000;DHT22;9633;50.980;13.850;2023-02-13T12:57:38;8.40;99.90
19000;DHT22;9633;50.980;13.850;2023-02-13T12:59:22;8.30;99.90
19000;DHT22;9633;50.980;13.850;2023-02-13T13:01:05;8.30;99.90
19000;DHT22;9633;50.980;13.850;2023-02-13T13:03:00;8.40;99.90
19000;DHT22;9633;50.980;13.850;2023-02-13T13:04:48;8.40;99.90
19000;DHT22;9633;50.980;13.850;2023-02-13T13:06:50;8.20;99.90
19000;DHT22;9633;50.980;13.850;2023-02-13T13:08:49;8.30;99.90
19000;DHT22;9633;50.980;13.850;2023-02-13T13:10:36;8.40;99.90
19000;DHT22;9633;50.980;13.850;2023-02-13T13:12:33;8.60;99.90
19000;DHT22;9633;50.980;13.850;2023-02-13T13:14:14;8.70;99.90
19000;DHT22;9633;50.980;13.850;2023-02-13T13:15:55;8.60;99.90
19000;DHT22;9633;50.980;13.850;2023-02-13T13:17:45;8.80;99.90
19000;DHT22;9633;50.980;13.850;2023-02-13T13:19:26;8.90;99.90
19000;DHT22;9633;50.980;13.850;2023-02-13T13:21:13;8.80;99.90
19000;DHT22;9633;50.980;13.850;2023-02-13T13:22:51;8.80;99.90
19000;DHT22;9633;50.980;13.850;2023-02-13T13:24:35;8.80;99.90
19000;DHT22;9633;50.980;13.850;2023-02-13T13:26:19;8.80;99.90
19000;DHT22;9633;50.980;13.850;2023-02-13T13:28:00;8.90;99.90
19000;DHT22;9633;50.980;13.850;2023-02-13T13:29:39;8.80;99.90
19000;DHT22;9633;50.980;13.850;2023-02-13T13:31:14;8.70;99.90
19000;DHT22;9633;50.980;13.850;2023-02-13T13:32:51;8.70;99.90
19000;DHT22;9633;50.980;13.850;2023-02-13T13:34:27;8.70;99.90
19000;DHT22;9633;50.980;13.850;2023-02-13T13:36:08;8.70;99.90
19000;DHT22;9633;50.980;13.850;2023-02-13T13:37:50;8.70;99.90
19000;DHT22;9633;50.980;13.850;2023-02-13T13:39:42;8.70;99.90
19000;DHT22;9633;50.980;13.850;2023-02-13T13:41:25;8.70;99.90
19000;DHT22;9633;50.980;13.850;2023-02-13T13:43:03;8.60;99.90
19000;DHT22;9633;50.980;13.850;2023-02-13T13:46:54;8.40;99.90
19000;DHT22;9633;50.980;13.850;2023-02-13T13:48:44;8.50;99.90
19000;DHT22;9633;50.980;13.850;2023-02-13T13:50:23;8.40;99.90
19000;DHT22;9633;50.980;13.850;2023-02-13T13:52:20;8.40;99.90
19000;DHT22;9633;50.980;13.850;2023-02-13T13:54:17;8.30;99.90
19000;DHT22;9633;50.980;13.850;2023-02-13T13:56:14;8.40;99.90
19000;DHT22;9633;50.980;13.850;2023-02-13T13:58:01;8.50;99.90
19000;DHT22;9633;50.980;13.850;2023-02-13T14:01:45;8.50;99.90
19000;DHT22;9633;50.980;13.850;2023-02-13T14:03:24;8.60;99.90
19000;DHT22;9633;50.980;13.850;2023-02-13T14:05:18;8.60;99.90
19000;DHT22;9633;50.980;13.850;2023-02-13T14:07:19;8.60;99.90
19000;DHT22;9633;50.980;13.850;2023-02-13T14:09:00;8.70;99.90
19000;DHT22;9633;50.980;13.850;2023-02-13T14:11:23;8.70;99.90
19000;DHT22;9633;50.980;13.850;2023-02-13T14:12:59;8.60;99.90
19000;DHT22;9633;50.980;13.850;2023-02-13T14:14:51;8.50;99.90
19000;DHT22;9633;50.980;13.850;2023-02-13T14:16:41;8.30;99.90
19000;DHT22;9633;50.980;13.850;2023-02-13T14:18:19;8.20;99.90
19000;DHT22;9633;50.980;13.850;2023-02-13T14:28:20;7.70;99.90
19000;DHT22;9633;50.980;13.850;2023-02-13T14:31:29;7.40;99.90
19000;DHT22;9633;50.980;13.850;2023-02-13T14:33:05;7.50;99.90
19000;DHT22;9633;50.980;13.850;2023-02-13T14:36:20;7.40;99.90
19000;DHT22;9633;50.980;13.850;2023-02-13T14:37:55;7.60;99.90
19000;DHT22;9633;50.980;13.850;2023-02-13T14:39:32;7.60;99.90
19000;DHT22;9633;50.980;13.850;2023-02-13T14:59:37;6.80;99.90
19000;DHT22;9633;50.980;13.850;2023-02-13T15:01:22;7.10;99.90
19000;DHT22;9633;50.980;13.850;2023-02-13T15:03:01;7.20;99.90
19000;DHT22;9633;50.980;13.850;2023-02-13T15:04:39;7.10;99.90
19000;DHT22;9633;50.980;13.850;2023-02-13T15:06:21;7.10;99.90
19000;DHT22;9633;50.980;13.850;2023-02-13T15:08:02;7.10;99.90
19000;DHT22;9633;50.980;13.850;2023-02-13T15:09:37;7.10;99.90
19000;DHT22;9633;50.980;13.850;2023-02-13T15:11:11;7.10;99.90
19000;DHT22;9633;50.980;13.850;2023-02-13T15:13:15;7.10;99.90
19000;DHT22;9633;50.980;13.850;2023-02-13T15:14:49;7.00;99.90
19000;DHT22;9633;50.980;13.850;2023-02-13T15:16:22;7.00;99.90
19000;DHT22;9633;50.980;13.850;2023-02-13T15:17:59;7.00;99.90
19000;DHT22;9633;50.980;13.850;2023-02-13T15:19:36;7.00;99.90
19000;DHT22;9633;50.980;13.850;2023-02-13T15:21:14;7.00;99.90
19000;DHT22;9633;50.980;13.850;2023-02-13T15:22:47;7.00;99.90
19000;DHT22;9633;50.980;13.850;2023-02-13T15:24:21;7.00;99.90
19000;DHT22;9633;50.980;13.850;2023-02-13T15:25:56;7.00;99.90
19000;DHT22;9633;50.980;13.850;2023-02-13T15:27:32;7.00;99.90
19000;DHT22;9633;50.980;13.850;2023-02-13T15:29:15;6.80;99.90
19000;DHT22;9633;50.980;13.850;2023-02-13T16:02:56;6.40;99.90
19000;DHT22;9633;50.980;13.850;2023-02-13T16:12:58;6.20;99.90
19000;DHT22;9633;50.980;13.850;2023-02-13T16:14:35;6.50;99.90
19000;DHT22;9633;50.980;13.850;2023-02-13T16:16:09;6.50;99.90
19000;DHT22;9633;50.980;13.850;2023-02-13T16:17:45;6.40;99.90
19000;DHT22;9633;50.980;13.850;2023-02-13T16:19:22;6.40;99.90
19000;DHT22;9633;50.980;13.850;2023-02-13T16:20:56;6.40;99.90
19000;DHT22;9633;50.980;13.850;2023-02-13T16:22:32;6.40;99.90
19000;DHT22;9633;50.980;13.850;2023-02-13T16:24:06;6.30;99.90
19000;DHT22;9633;50.980;13.850;2023-02-13T16:25:40;6.30;99.90
19000;DHT22;9633;50.980;13.850;2023-02-13T16:27:14;6.20;99.90
19000;DHT22;9633;50.980;13.850;2023-02-13T16:28:48;6.20;99.90
19000;DHT22;9633;50.980;13.850;2023-02-13T16:30:26;6.20;99.90
19000;DHT22;9633;50.980;13.850;2023-02-13T16:32:10;6.30;99.90
19000;DHT22;9633;50.980;13.850;2023-02-13T16:33:47;6.20;99.90
19000;DHT22;9633;50.980;13.850;2023-02-13T16:35:27;6.20;99.90
19000;DHT22;9633;50.980;13.850;2023-02-13T16:37:00;6.20;99.90
19000;DHT22;9633;50.980;13.850;2023-02-13T16:38:35;6.20;99.90
19000;DHT22;9633;50.980;13.850;2023-02-13T16:45:20;6.10;99.90
19000;DHT22;9633;50.980;13.850;2023-02-13T16:48:29;6.10;99.90
19000;DHT22;9633;50.980;13.850;2023-02-13T16:50:04;6.20;99.90
19000;DHT22;9633;50.980;13.850;2023-02-13T16:51:39;6.20;99.90
19000;DHT22;9633;50.980;13.850;2023-02-13T16:53:15;6.30;99.90
19000;DHT22;9633;50.980;13.850;2023-02-13T16:54:52;6.30;99.90
19000;DHT22;9633;50.980;13.850;2023-02-13T16:56:26;6.30;99.90
19000;DHT22;9633;50.980;13.850;2023-02-13T16:58:03;6.30;99.90
19000;DHT22;9633;50.980;13.850;2023-02-13T16:59:47;6.30;99.90
19000;DHT22;9633;50.980;13.850;2023-02-13T17:01:23;6.30;99.90
19000;DHT22;9633;50.980;13.850;2023-02-13T17:02:56;6.30;99.90
19000;DHT22;9633;50.980;13.850;2023-02-13T17:04:30;6.20;99.90
19000;DHT22;9633;50.980;13.850;2023-02-13T17:06:04;6.20;99.90
19000;DHT22;9633;50.980;13.850;2023-02-13T17:07:39;6.20;99.90
19000;DHT22;9633;50.980;13.850;2023-02-13T17:09:12;6.20;99.90
19000;DHT22;9633;50.980;13.850;2023-02-13T17:11:01;6.10;99.90
19000;DHT22;9633;50.980;13.850;2023-02-13T17:12:37;6.10;99.90
19000;DHT22;9633;50.980;13.850;2023-02-13T17:14:10;6.10;99.90
19000;DHT22;9633;50.980;13.850;2023-02-13T17:15:45;6.10;99.90
19000;DHT22;9633;50.980;13.850;2023-02-13T17:17:20;6.10;99.90
19000;DHT22;9633;50.980;13.850;2023-02-13T17:18:53;6.10;99.90
19000;DHT22;9633;50.980;13.850;2023-02-13T17:20:28;6.20;99.90
19000;DHT22;9633;50.980;13.850;2023-02-13T17:22:03;6.20;99.90
19000;DHT22;9633;50.980;13.850;2023-02-13T17:23:36;6.30;99.90
19000;DHT22;9633;50.980;13.850;2023-02-13T17:25:16;6.20;99.90
19000;DHT22;9633;50.980;13.850;2023-02-13T17:26:51;6.20;99.90
19000;DHT22;9633;50.980;13.850;2023-02-13T17:28:25;6.00;99.90
19000;DHT22;9633;50.980;13.850;2023-02-13T17:30:01;6.00;99.90
19000;DHT22;9633;50.980;13.850;2023-02-13T17:31:34;6.00;99.90
19000;DHT22;9633;50.980;13.850;2023-02-13T17:33:11;6.00;99.90
19000;DHT22;9633;50.980;13.850;2023-02-13T17:45:45;6.20;99.90
19000;DHT22;9633;50.980;13.850;2023-02-13T17:47:19;6.20;99.90
19000;DHT22;9633;50.980;13.850;2023-02-13T17:48:52;6.20;99.90
19000;DHT22;9633;50.980;13.850;2023-02-13T17:50:26;6.20;99.90
19000;DHT22;9633;50.980;13.850;2023-02-13T17:52:00;6.10;99.90
19000;DHT22;9633;50.980;13.850;2023-02-13T17:53:35;6.10;99.90
19000;DHT22;9633;50.980;13.850;2023-02-13T17:55:15;6.00;99.90
19000;DHT22;9633;50.980;13.850;2023-02-13T17:56:49;6.00;99.90
19000;DHT22;9633;50.980;13.850;2023-02-13T17:58:22;6.00;99.90
19000;DHT22;9633;50.980;13.850;2023-02-13T17:59:55;6.00;99.90
19000;DHT22;9633;50.980;13.850;2023-02-13T18:01:30;6.00;99.90
19000;DHT22;9633;50.980;13.850;2023-02-13T18:03:03;6.00;99.90
19000;DHT22;9633;50.980;13.850;2023-02-13T18:04:36;6.00;99.90
19000;DHT22;9633;50.980;13.850;2023-02-13T18:06:10;5.90;99.90
19000;DHT22;9633;50.980;13.850;2023-02-13T18:07:44;5.90;99.90
19000;DHT22;9633;50.980;13.850;2023-02-13T18:09:19;5.90;99.90
19000;DHT22;9633;50.980;13.850;2023-02-13T18:10:52;5.90;99.90
19000;DHT22;9633;50.980;13.850;2023-02-13T18:12:27;5.90;99.90
19000;DHT22;9633;50.980;13.850;2023-02-13T18:14:00;6.00;99.90
19000;DHT22;9633;50.980;13.850;2023-02-13T18:15:35;5.90;99.90
19000;DHT22;9633;50.980;13.850;2023-02-13T18:17:10;5.90;99.90
19000;DHT22;9633;50.980;13.850;2023-02-13T18:18:44;5.90;99.90
19000;DHT22;9633;50.980;13.850;2023-02-13T18:20:19;5.90;99.90
19000;DHT22;9633;50.980;13.850;2023-02-13T18:21:52;5.90;99.90
19000;DHT22;9633;50.980;13.850;2023-02-13T18:23:25;5.90;99.90
19000;DHT22;9633;50.980;13.850;2023-02-13T18:25:00;5.80;99.90
19000;DHT22;9633;50.980;13.850;2023-02-13T18:26:34;5.80;99.90
19000;DHT22;9633;50.980;13.850;2023-02-13T18:28:07;5.80;99.90
19000;DHT22;9633;50.980;13.850;2023-02-13T18:29:40;5.80;99.90
19000;DHT22;9633;50.980;13.850;2023-02-13T18:31:13;5.70;99.90
19000;DHT22;9633;50.980;13.850;2023-02-13T18:32:51;5.60;99.90
19000;DHT22;9633;50.980;13.850;2023-02-13T18:34:24;5.60;99.90
19000;DHT22;9633;50.980;13.850;2023-02-13T18:35:59;5.60;99.90
19000;DHT22;9633;50.980;13.850;2023-02-13T18:37:32;5.60;99.90
19000;DHT22;9633;50.980;13.850;2023-02-13T18:39:05;5.60;99.90
19000;DHT22;9633;50.980;13.850;2023-02-13T18:40:40;5.60;99.90
19000;DHT22;9633;50.980;13.850;2023-02-13T18:42:13;5.60;99.90
19000;DHT22;9633;50.980;13.850;2023-02-13T18:43:46;5.60;99.90
19000;DHT22;9633;50.980;13.850;2023-02-13T18:45:19;5.60;99.90
19000;DHT22;9633;50.980;13.850;2023-02-13T18:46:52;5.60;99.90
19000;DHT22;9633;50.980;13.850;2023-02-13T18:48:25;5.60;99.90
19000;DHT22;9633;50.980;13.850;2023-02-13T18:49:58;5.60;99.90
19000;DHT22;9633;50.980;13.850;2023-02-13T18:51:32;5.60;99.90
19000;DHT22;9633;50.980;13.850;2023-02-13T18:53:05;5.60;99.90
19000;DHT22;9633;50.980;13.850;2023-02-13T18:54:38;5.60;99.90
19000;DHT22;9633;50.980;13.850;2023-02-13T18:56:12;5.60;99.90
19000;DHT22;9633;50.980;13.850;2023-02-13T18:57:46;5.70;99.90
19000;DHT22;9633;50.980;13.850;2023-02-13T18:59:19;5.70;99.90
19000;DHT22;9633;50.980;13.850;2023-02-13T19:00:53;5.70;99.90
19000;DHT22;9633;50.980;13.850;2023-02-13T19:02:27;5.70;99.90
19000;DHT22;9633;50.980;13.850;2023-02-13T19:04:01;5.60;99.90
19000;DHT22;9633;50.980;13.850;2023-02-13T19:05:39;5.60;99.90
19000;DHT22;9633;50.980;13.850;2023-02-13T19:07:12;5.60;99.90
19000;DHT22;9633;50.980;13.850;2023-02-13T19:08:46;5.60;99.90
19000;DHT22;9633;50.980;13.850;2023-02-13T19:10:19;5.60;99.90
19000;DHT22;9633;50.980;13.850;2023-02-13T19:11:54;5.60;99.90
19000;DHT22;9633;50.980;13.850;2023-02-13T19:13:27;5.60;99.90
19000;DHT22;9633;50.980;13.850;2023-02-13T19:15:00;5.60;99.90
19000;DHT22;9633;50.980;13.850;2023-02-13T19:16:34;5.60;99.90
19000;DHT22;9633;50.980;13.850;2023-02-13T19:18:07;5.60;99.90
19000;DHT22;9633;50.980;13.850;2023-02-13T19:19:40;5.60;99.90
19000;DHT22;9633;50.980;13.850;2023-02-13T19:21:14;5.50;99.90
19000;DHT22;9633;50.980;13.850;2023-02-13T19:22:47;5.60;99.90
19000;DHT22;9633;50.980;13.850;2023-02-13T19:24:20;5.60;99.90
19000;DHT22;9633;50.980;13.850;2023-02-13T19:25:53;5.60;99.90
19000;DHT22;9633;50.980;13.850;2023-02-13T19:27:28;5.60;99.90
19000;DHT22;9633;50.980;13.850;2023-02-13T19:29:01;5.60;99.90
19000;DHT22;9633;50.980;13.850;2023-02-13T19:30:34;5.60;99.90
19000;DHT22;9633;50.980;13.850;2023-02-13T19:32:08;5.60;99.90
19000;DHT22;9633;50.980;13.850;2023-02-13T19:33:41;5.60;99.90
19000;DHT22;9633;50.980;13.850;2023-02-13T19:35:14;5.60;99.90
19000;DHT22;9633;50.980;13.850;2023-02-13T19:36:47;5.60;99.90
19000;DHT22;9633;50.980;13.850;2023-02-13T19:38:21;5.50;99.90
19000;DHT22;9633;50.980;13.850;2023-02-13T19:39:54;5.60;99.90
19000;DHT22;9633;50.980;13.850;2023-02-13T19:41:27;5.50;99.90
19000;DHT22;9633;50.980;13.850;2023-02-13T19:43:01;5.50;99.90
19000;DHT22;9633;50.980;13.850;2023-02-13T19:44:34;5.50;99.90
19000;DHT22;9633;50.980;13.850;2023-02-13T19:46:09;5.50;99.90
19000;DHT22;9633;50.980;13.850;2023-02-13T19:47:45;5.50;99.90
19000;DHT22;9633;50.980;13.850;2023-02-13T19:49:18;5.50;99.90
19000;DHT22;9633;50.980;13.850;2023-02-13T19:50:53;5.50;99.90
19000;DHT22;9633;50.980;13.850;2023-02-13T19:52:26;5.50;99.90
19000;DHT22;9633;50.980;13.850;2023-02-13T19:54:01;5.50;99.90
19000;DHT22;9633;50.980;13.850;2023-02-13T19:55:34;5.50;99.90
19000;DHT22;9633;50.980;13.850;2023-02-13T19:57:07;5.50;99.90
19000;DHT22;9633;50.980;13.850;2023-02-13T19:58:42;5.50;99.90
19000;DHT22;9633;50.980;13.850;2023-02-13T20:03:22;5.60;99.90
19000;DHT22;9633;50.980;13.850;2023-02-13T20:06:31;5.50;99.90
19000;DHT22;9633;50.980;13.850;2023-02-13T20:08:05;5.50;99.90
19000;DHT22;9633;50.980;13.850;2023-02-13T20:09:39;5.50;99.90
19000;DHT22;9633;50.980;13.850;2023-02-13T20:11:14;5.50;99.90
19000;DHT22;9633;50.980;13.850;2023-02-13T20:12:47;5.40;99.90
19000;DHT22;9633;50.980;13.850;2023-02-13T20:14:25;5.40;99.90
19000;DHT22;9633;50.980;13.850;2023-02-13T20:19:09;5.60;99.90
19000;DHT22;9633;50.980;13.850;2023-02-13T20:20:42;5.60;99.90
19000;DHT22;9633;50.980;13.850;2023-02-13T20:22:16;5.60;99.90